sensor_id;sensor_type;location;lat;lon;timestamp;temperature;humidity
36002;DHT22;22070;50.922;5.430;2022-10-16T00:00:35;15.00;99.90
36002;DHT22;22070;50.922;5.430;2022-10-16T00:03:02;15.00;99.90
36002;DHT22;22070;50.922;5.430;2022-10-16T00:05:27;14.90;99.90
36002;DHT22;22070;50.922;5.430;2022-10-16T00:07:53;14.90;99.90
36002;DHT22;22070;50.922;5.430;2022-10-16T00:10:19;14.90;99.90
36002;DHT22;22070;50.922;5.430;2022-10-16T00:12:44;14.90;99.90
36002;DHT22;22070;50.922;5.430;2022-10-16T00:15:11;14.90;99.90
36002;DHT22;22070;50.922;5.430;2022-10-16T00:17:36;14.90;99.90
36002;DHT22;22070;50.922;5.430;2022-10-16T00:20:02;14.90;99.90
36002;DHT22;22070;50.922;5.430;2022-10-16T00:22:29;14.90;99.90
36002;DHT22;22070;50.922;5.430;2022-10-16T00:24:54;14.90;99.90
36002;DHT22;22070;50.922;5.430;2022-10-16T00:27:20;14.90;99.90
36002;DHT22;22070;50.922;5.430;2022-10-16T00:29:49;15.00;99.90
36002;DHT22;22070;50.922;5.430;2022-10-16T00:32:15;14.90;99.90
36002;DHT22;22070;50.922;5.430;2022-10-16T00:34:41;14.90;99.90
36002;DHT22;22070;50.922;5.430;2022-10-16T00:37:07;14.90;99.90
36002;DHT22;22070;50.922;5.430;2022-10-16T00:39:32;15.00;99.90
36002;DHT22;22070;50.922;5.430;2022-10-16T00:41:58;14.90;99.90
36002;DHT22;22070;50.922;5.430;2022-10-16T00:44:46;14.90;99.90
36002;DHT22;22070;50.922;5.430;2022-10-16T00:49:51;14.80;99.90
36002;DHT22;22070;50.922;5.430;2022-10-16T00:52:19;14.80;99.90
36002;DHT22;22070;50.922;5.430;2022-10-16T00:54:46;14.70;99.90
36002;DHT22;22070;50.922;5.430;2022-10-16T00:57:12;14.70;99.90
36002;DHT22;22070;50.922;5.430;2022-10-16T00:59:41;14.80;99.90
36002;DHT22;22070;50.922;5.430;2022-10-16T01:02:11;14.80;99.90
36002;DHT22;22070;50.922;5.430;2022-10-16T01:04:39;14.80;99.90
36002;DHT22;22070;50.922;5.430;2022-10-16T01:10:07;14.70;99.90
36002;DHT22;22070;50.922;5.430;2022-10-16T01:15:42;14.80;99.90
36002;DHT22;22070;50.922;5.430;2022-10-16T01:18:32;14.80;99.90
36002;DHT22;22070;50.922;5.430;2022-10-16T01:21:07;14.70;99.90
36002;DHT22;22070;50.922;5.430;2022-10-16T01:29:11;14.60;99.90
36002;DHT22;22070;50.922;5.430;2022-10-16T01:31:41;14.60;99.90
36002;DHT22;22070;50.922;5.430;2022-10-16T01:34:20;14.60;99.90
36002;DHT22;22070;50.922;5.430;2022-10-16T01:36:53;14.70;99.90
36002;DHT22;22070;50.922;5.430;2022-10-16T01:39:24;14.70;99.90
36002;DHT22;22070;50.922;5.430;2022-10-16T01:41:55;14.60;99.90
36002;DHT22;22070;50.922;5.430;2022-10-16T01:44:28;14.50;99.90
36002;DHT22;22070;50.922;5.430;2022-10-16T01:46:55;14.40;99.90
36002;DHT22;22070;50.922;5.430;2022-10-16T01:49:23;14.40;99.90
36002;DHT22;22070;50.922;5.430;2022-10-16T01:51:54;14.40;99.90
36002;DHT22;22070;50.922;5.430;2022-10-16T01:54:23;14.60;99.90
36002;DHT22;22070;50.922;5.430;2022-10-16T01:56:51;14.50;99.90
36002;DHT22;22070;50.922;5.430;2022-10-16T01:59:20;14.60;99.90
36002;DHT22;22070;50.922;5.430;2022-10-16T02:01:52;14.40;99.90
36002;DHT22;22070;50.922;5.430;2022-10-16T02:04:29;14.40;99.90
36002;DHT22;22070;50.922;5.430;2022-10-16T02:06:56;14.40;99.90
36002;DHT22;22070;50.922;5.430;2022-10-16T02:09:22;14.40;99.90
36002;DHT22;22070;50.922;5.430;2022-10-16T02:11:48;14.40;99.90
36002;DHT22;22070;50.922;5.430;2022-10-16T02:14:14;14.40;99.90
36002;DHT22;22070;50.922;5.430;2022-10-16T02:16:43;14.40;99.90
36002;DHT22;22070;50.922;5.430;2022-10-16T02:19:09;14.40;99.90
36002;DHT22;22070;50.922;5.430;2022-10-16T02:22:09;14.40;99.90
36002;DHT22;22070;50.922;5.430;2022-10-16T02:24:47;14.40;99.90
36002;DHT22;22070;50.922;5.430;2022-10-16T02:27:27;14.50;99.90
36002;DHT22;22070;50.922;5.430;2022-10-16T02:30:07;14.40;99.90
36002;DHT22;22070;50.922;5.430;2022-10-16T02:32:38;14.40;99.90
36002;DHT22;22070;50.922;5.430;2022-10-16T02:35:06;14.40;99.90
36002;DHT22;22070;50.922;5.430;2022-10-16T02:37:33;14.40;99.90
36002;DHT22;22070;50.922;5.430;2022-10-16T02:39:59;14.40;99.90
36002;DHT22;22070;50.922;5.430;2022-10-16T02:42:29;14.40;99.90
36002;DHT22;22070;50.922;5.430;2022-10-16T02:44:58;14.40;99.90
36002;DHT22;22070;50.922;5.430;2022-10-16T02:47:23;14.30;99.90
36002;DHT22;22070;50.922;5.430;2022-10-16T02:49:49;14.30;99.90
36002;DHT22;22070;50.922;5.430;2022-10-16T02:52:14;14.30;99.90
36002;DHT22;22070;50.922;5.430;2022-10-16T02:54:40;14.40;99.90
36002;DHT22;22070;50.922;5.430;2022-10-16T02:57:06;14.50;99.90
36002;DHT22;22070;50.922;5.430;2022-10-16T02:59:31;14.50;99.90
36002;DHT22;22070;50.922;5.430;2022-10-16T03:01:57;14.40;99.90
36002;DHT22;22070;50.922;5.430;2022-10-16T03:04:22;14.50;99.90
36002;DHT22;22070;50.922;5.430;2022-10-16T03:06:48;14.50;99.90
36002;DHT22;22070;50.922;5.430;2022-10-16T03:09:14;14.40;99.90
36002;DHT22;22070;50.922;5.430;2022-10-16T03:11:39;14.40;99.90
36002;DHT22;22070;50.922;5.430;2022-10-16T03:14:05;14.40;99.90
36002;DHT22;22070;50.922;5.430;2022-10-16T03:16:30;14.40;99.90
36002;DHT22;22070;50.922;5.430;2022-10-16T03:18:56;14.40;99.90
36002;DHT22;22070;50.922;5.430;2022-10-16T03:21:22;14.40;99.90
36002;DHT22;22070;50.922;5.430;2022-10-16T03:23:47;14.40;99.90
36002;DHT22;22070;50.922;5.430;2022-10-16T03:26:13;14.40;99.90
36002;DHT22;22070;50.922;5.430;2022-10-16T03:28:38;14.40;99.90
36002;DHT22;22070;50.922;5.430;2022-10-16T03:31:04;14.40;99.90
36002;DHT22;22070;50.922;5.430;2022-10-16T03:33:30;14.40;99.90
36002;DHT22;22070;50.922;5.430;2022-10-16T03:35:55;14.30;99.90
36002;DHT22;22070;50.922;5.430;2022-10-16T03:38:21;14.30;99.90
36002;DHT22;22070;50.922;5.430;2022-10-16T03:40:47;14.30;99.90
36002;DHT22;22070;50.922;5.430;2022-10-16T03:43:13;14.40;99.90
36002;DHT22;22070;50.922;5.430;2022-10-16T03:45:39;14.40;99.90
36002;DHT22;22070;50.922;5.430;2022-10-16T03:48:05;14.20;99.90
36002;DHT22;22070;50.922;5.430;2022-10-16T03:50:31;14.20;99.90
36002;DHT22;22070;50.922;5.430;2022-10-16T03:52:56;14.30;99.90
36002;DHT22;22070;50.922;5.430;2022-10-16T03:55:22;14.30;99.90
36002;DHT22;22070;50.922;5.430;2022-10-16T03:57:48;14.30;99.90
36002;DHT22;22070;50.922;5.430;2022-10-16T04:00:13;14.30;99.90
36002;DHT22;22070;50.922;5.430;2022-10-16T04:02:39;14.40;99.90
36002;DHT22;22070;50.922;5.430;2022-10-16T04:05:05;14.20;99.90
36002;DHT22;22070;50.922;5.430;2022-10-16T04:07:31;14.30;99.90
36002;DHT22;22070;50.922;5.430;2022-10-16T04:09:56;14.30;99.90
36002;DHT22;22070;50.922;5.430;2022-10-16T04:12:24;14.30;99.90
36002;DHT22;22070;50.922;5.430;2022-10-16T04:14:50;14.20;99.90
36002;DHT22;22070;50.922;5.430;2022-10-16T04:17:16;14.20;99.90
36002;DHT22;22070;50.922;5.430;2022-10-16T04:19:41;14.20;99.90
36002;DHT22;22070;50.922;5.430;2022-10-16T04:22:07;14.10;99.90
36002;DHT22;22070;50.922;5.430;2022-10-16T04:24:33;14.20;99.90
36002;DHT22;22070;50.922;5.430;2022-10-16T04:26:59;14.30;99.90
36002;DHT22;22070;50.922;5.430;2022-10-16T04:29:24;14.10;99.90
36002;DHT22;22070;50.922;5.430;2022-10-16T04:31:50;14.10;99.90
36002;DHT22;22070;50.922;5.430;2022-10-16T04:34:16;14.10;99.90
36002;DHT22;22070;50.922;5.430;2022-10-16T04:36:41;14.10;99.90
36002;DHT22;22070;50.922;5.430;2022-10-16T04:39:07;14.10;99.90
36002;DHT22;22070;50.922;5.430;2022-10-16T04:41:33;14.20;99.90
36002;DHT22;22070;50.922;5.430;2022-10-16T04:43:58;14.20;99.90
36002;DHT22;22070;50.922;5.430;2022-10-16T04:46:24;14.20;99.90
36002;DHT22;22070;50.922;5.430;2022-10-16T04:48:49;14.20;99.90
36002;DHT22;22070;50.922;5.430;2022-10-16T04:51:15;14.10;99.90
36002;DHT22;22070;50.922;5.430;2022-10-16T04:53:41;14.20;99.90
36002;DHT22;22070;50.922;5.430;2022-10-16T04:56:06;14.20;99.90
36002;DHT22;22070;50.922;5.430;2022-10-16T04:58:32;14.20;99.90
36002;DHT22;22070;50.922;5.430;2022-10-16T05:00:58;14.20;99.90
36002;DHT22;22070;50.922;5.430;2022-10-16T05:03:24;14.20;99.90
36002;DHT22;22070;50.922;5.430;2022-10-16T05:05:49;14.20;99.90
36002;DHT22;22070;50.922;5.430;2022-10-16T05:08:16;14.10;99.90
36002;DHT22;22070;50.922;5.430;2022-10-16T05:10:43;14.10;99.90
36002;DHT22;22070;50.922;5.430;2022-10-16T05:13:09;14.10;99.90
36002;DHT22;22070;50.922;5.430;2022-10-16T05:15:35;14.10;99.90
36002;DHT22;22070;50.922;5.430;2022-10-16T05:18:00;14.10;99.90
36002;DHT22;22070;50.922;5.430;2022-10-16T05:20:26;14.20;99.90
36002;DHT22;22070;50.922;5.430;2022-10-16T05:22:52;14.20;99.90
36002;DHT22;22070;50.922;5.430;2022-10-16T05:25:17;14.10;99.90
36002;DHT22;22070;50.922;5.430;2022-10-16T05:27:46;14.20;99.90
36002;DHT22;22070;50.922;5.430;2022-10-16T05:30:12;14.30;99.90
36002;DHT22;22070;50.922;5.430;2022-10-16T05:32:38;14.30;99.90
36002;DHT22;22070;50.922;5.430;2022-10-16T05:35:04;14.20;99.90
36002;DHT22;22070;50.922;5.430;2022-10-16T05:37:29;14.10;99.90
36002;DHT22;22070;50.922;5.430;2022-10-16T05:39:55;14.10;99.90
36002;DHT22;22070;50.922;5.430;2022-10-16T05:42:21;14.00;99.90
36002;DHT22;22070;50.922;5.430;2022-10-16T05:44:46;14.20;99.90
36002;DHT22;22070;50.922;5.430;2022-10-16T05:47:12;14.10;99.90
36002;DHT22;22070;50.922;5.430;2022-10-16T05:49:39;14.10;99.90
36002;DHT22;22070;50.922;5.430;2022-10-16T05:52:05;14.10;99.90
36002;DHT22;22070;50.922;5.430;2022-10-16T05:54:30;14.00;99.90
36002;DHT22;22070;50.922;5.430;2022-10-16T05:56:56;14.10;99.90
36002;DHT22;22070;50.922;5.430;2022-10-16T05:59:22;14.00;99.90
36002;DHT22;22070;50.922;5.430;2022-10-16T06:01:47;14.10;99.90
36002;DHT22;22070;50.922;5.430;2022-10-16T06:04:13;14.10;99.90
36002;DHT22;22070;50.922;5.430;2022-10-16T06:06:38;14.10;99.90
36002;DHT22;22070;50.922;5.430;2022-10-16T06:09:04;14.20;99.90
36002;DHT22;22070;50.922;5.430;2022-10-16T06:11:32;14.20;99.90
36002;DHT22;22070;50.922;5.430;2022-10-16T06:14:00;14.20;99.90
36002;DHT22;22070;50.922;5.430;2022-10-16T06:16:28;14.10;99.90
36002;DHT22;22070;50.922;5.430;2022-10-16T06:18:55;14.20;99.90
36002;DHT22;22070;50.922;5.430;2022-10-16T06:21:23;14.20;99.90
36002;DHT22;22070;50.922;5.430;2022-10-16T06:23:52;14.10;99.90
36002;DHT22;22070;50.922;5.430;2022-10-16T06:26:21;14.10;99.90
36002;DHT22;22070;50.922;5.430;2022-10-16T06:28:47;14.10;99.90
36002;DHT22;22070;50.922;5.430;2022-10-16T06:31:14;14.10;99.90
36002;DHT22;22070;50.922;5.430;2022-10-16T06:33:40;14.10;99.90
36002;DHT22;22070;50.922;5.430;2022-10-16T06:36:11;14.20;99.90
36002;DHT22;22070;50.922;5.430;2022-10-16T06:38:37;14.20;99.90
36002;DHT22;22070;50.922;5.430;2022-10-16T06:41:04;14.20;99.90
36002;DHT22;22070;50.922;5.430;2022-10-16T06:43:31;14.30;99.90
36002;DHT22;22070;50.922;5.430;2022-10-16T06:45:58;14.30;99.90
36002;DHT22;22070;50.922;5.430;2022-10-16T06:48:24;14.20;99.90
36002;DHT22;22070;50.922;5.430;2022-10-16T06:53:23;14.10;99.90
36002;DHT22;22070;50.922;5.430;2022-10-16T06:55:49;14.10;99.90
36002;DHT22;22070;50.922;5.430;2022-10-16T06:58:14;14.10;99.90
36002;DHT22;22070;50.922;5.430;2022-10-16T07:00:40;14.10;99.90
36002;DHT22;22070;50.922;5.430;2022-10-16T07:03:05;14.20;99.90
36002;DHT22;22070;50.922;5.430;2022-10-16T07:05:31;14.10;99.90
36002;DHT22;22070;50.922;5.430;2022-10-16T07:07:57;14.20;99.90
36002;DHT22;22070;50.922;5.430;2022-10-16T07:10:22;14.20;99.90
36002;DHT22;22070;50.922;5.430;2022-10-16T07:12:49;14.30;99.90
36002;DHT22;22070;50.922;5.430;2022-10-16T07:15:15;14.30;99.90
36002;DHT22;22070;50.922;5.430;2022-10-16T07:17:41;14.30;99.90
36002;DHT22;22070;50.922;5.430;2022-10-16T07:20:06;14.30;99.90
36002;DHT22;22070;50.922;5.430;2022-10-16T07:22:32;14.30;99.90
36002;DHT22;22070;50.922;5.430;2022-10-16T07:24:58;14.40;99.90
36002;DHT22;22070;50.922;5.430;2022-10-16T07:27:24;14.40;99.90
36002;DHT22;22070;50.922;5.430;2022-10-16T07:29:50;14.40;99.90
36002;DHT22;22070;50.922;5.430;2022-10-16T07:32:15;14.50;99.90
36002;DHT22;22070;50.922;5.430;2022-10-16T07:34:41;14.60;99.90
36002;DHT22;22070;50.922;5.430;2022-10-16T07:37:07;14.60;99.90
36002;DHT22;22070;50.922;5.430;2022-10-16T07:39:33;14.70;99.90
36002;DHT22;22070;50.922;5.430;2022-10-16T07:41:59;14.80;99.90
36002;DHT22;22070;50.922;5.430;2022-10-16T07:44:24;14.80;99.90
36002;DHT22;22070;50.922;5.430;2022-10-16T07:46:50;14.80;99.90
36002;DHT22;22070;50.922;5.430;2022-10-16T07:49:15;14.80;99.90
36002;DHT22;22070;50.922;5.430;2022-10-16T07:51:41;14.90;99.90
36002;DHT22;22070;50.922;5.430;2022-10-16T07:54:11;15.00;99.90
36002;DHT22;22070;50.922;5.430;2022-10-16T07:56:36;15.00;99.90
36002;DHT22;22070;50.922;5.430;2022-10-16T07:59:02;15.00;99.90
36002;DHT22;22070;50.922;5.430;2022-10-16T08:01:28;15.10;99.90
36002;DHT22;22070;50.922;5.430;2022-10-16T08:03:53;15.10;99.90
36002;DHT22;22070;50.922;5.430;2022-10-16T08:06:20;15.20;99.90
36002;DHT22;22070;50.922;5.430;2022-10-16T08:08:46;15.30;99.90
36002;DHT22;22070;50.922;5.430;2022-10-16T08:11:13;15.30;99.90
36002;DHT22;22070;50.922;5.430;2022-10-16T08:13:40;15.40;99.90
36002;DHT22;22070;50.922;5.430;2022-10-16T08:16:06;15.40;99.90
36002;DHT22;22070;50.922;5.430;2022-10-16T08:18:34;15.40;99.90
36002;DHT22;22070;50.922;5.430;2022-10-16T08:21:00;15.50;99.90
36002;DHT22;22070;50.922;5.430;2022-10-16T08:23:26;15.60;99.90
36002;DHT22;22070;50.922;5.430;2022-10-16T08:25:53;15.60;99.90
36002;DHT22;22070;50.922;5.430;2022-10-16T08:28:19;15.60;99.90
36002;DHT22;22070;50.922;5.430;2022-10-16T08:30:45;15.70;99.90
36002;DHT22;22070;50.922;5.430;2022-10-16T08:33:11;15.80;99.90
36002;DHT22;22070;50.922;5.430;2022-10-16T08:35:36;15.80;99.90
36002;DHT22;22070;50.922;5.430;2022-10-16T08:38:06;15.80;99.90
36002;DHT22;22070;50.922;5.430;2022-10-16T08:40:34;15.90;99.90
36002;DHT22;22070;50.922;5.430;2022-10-16T08:51:09;16.10;99.90
36002;DHT22;22070;50.922;5.430;2022-10-16T08:53:41;16.10;99.90
36002;DHT22;22070;50.922;5.430;2022-10-16T08:56:08;16.30;99.90
36002;DHT22;22070;50.922;5.430;2022-10-16T08:58:34;16.20;99.90
36002;DHT22;22070;50.922;5.430;2022-10-16T09:01:17;16.30;99.90
36002;DHT22;22070;50.922;5.430;2022-10-16T09:12:24;16.50;99.90
36002;DHT22;22070;50.922;5.430;2022-10-16T09:17:48;16.50;99.90
36002;DHT22;22070;50.922;5.430;2022-10-16T09:23:10;16.60;99.90
36002;DHT22;22070;50.922;5.430;2022-10-16T09:25:39;16.70;99.90
36002;DHT22;22070;50.922;5.430;2022-10-16T09:28:08;16.80;99.90
36002;DHT22;22070;50.922;5.430;2022-10-16T09:30:34;16.80;99.90
36002;DHT22;22070;50.922;5.430;2022-10-16T09:33:00;16.90;99.90
36002;DHT22;22070;50.922;5.430;2022-10-16T09:35:38;17.00;99.90
36002;DHT22;22070;50.922;5.430;2022-10-16T09:38:04;16.90;99.90
36002;DHT22;22070;50.922;5.430;2022-10-16T09:40:36;17.00;99.90
36002;DHT22;22070;50.922;5.430;2022-10-16T09:46:09;17.10;99.90
36002;DHT22;22070;50.922;5.430;2022-10-16T09:48:48;17.20;99.90
36002;DHT22;22070;50.922;5.430;2022-10-16T09:51:39;17.30;99.90
36002;DHT22;22070;50.922;5.430;2022-10-16T09:56:37;17.20;99.90
36002;DHT22;22070;50.922;5.430;2022-10-16T09:59:17;17.30;99.90
36002;DHT22;22070;50.922;5.430;2022-10-16T10:01:51;17.30;99.90
36002;DHT22;22070;50.922;5.430;2022-10-16T10:04:18;17.30;99.90
36002;DHT22;22070;50.922;5.430;2022-10-16T10:09:24;17.30;99.90
36002;DHT22;22070;50.922;5.430;2022-10-16T10:12:01;17.40;99.90
36002;DHT22;22070;50.922;5.430;2022-10-16T10:14:39;17.50;99.90
36002;DHT22;22070;50.922;5.430;2022-10-16T10:19:51;17.70;99.90
36002;DHT22;22070;50.922;5.430;2022-10-16T10:22:26;17.70;99.90
36002;DHT22;22070;50.922;5.430;2022-10-16T10:24:56;17.70;99.90
36002;DHT22;22070;50.922;5.430;2022-10-16T10:35:27;18.00;99.90
36002;DHT22;22070;50.922;5.430;2022-10-16T10:38:25;18.10;99.90
36002;DHT22;22070;50.922;5.430;2022-10-16T10:52:33;18.00;99.90
36002;DHT22;22070;50.922;5.430;2022-10-16T10:55:33;17.90;99.90
36002;DHT22;22070;50.922;5.430;2022-10-16T11:01:17;18.00;99.90
36002;DHT22;22070;50.922;5.430;2022-10-16T11:07:05;18.20;99.90
36002;DHT22;22070;50.922;5.430;2022-10-16T11:09:38;18.30;99.90
36002;DHT22;22070;50.922;5.430;2022-10-16T11:12:19;18.40;99.90
36002;DHT22;22070;50.922;5.430;2022-10-16T11:14:48;18.50;99.90
36002;DHT22;22070;50.922;5.430;2022-10-16T11:17:19;18.60;99.90
36002;DHT22;22070;50.922;5.430;2022-10-16T11:20:05;18.60;99.90
36002;DHT22;22070;50.922;5.430;2022-10-16T11:25:30;18.70;99.90
36002;DHT22;22070;50.922;5.430;2022-10-16T11:30:34;18.90;99.90
36002;DHT22;22070;50.922;5.430;2022-10-16T11:33:27;18.80;99.90
36002;DHT22;22070;50.922;5.430;2022-10-16T11:36:04;18.70;99.90
36002;DHT22;22070;50.922;5.430;2022-10-16T11:38:37;18.80;99.90
36002;DHT22;22070;50.922;5.430;2022-10-16T11:41:37;18.90;99.90
36002;DHT22;22070;50.922;5.430;2022-10-16T11:46:48;19.10;99.90
36002;DHT22;22070;50.922;5.430;2022-10-16T11:49:19;19.10;99.90
36002;DHT22;22070;50.922;5.430;2022-10-16T11:54:51;19.10;99.90
36002;DHT22;22070;50.922;5.430;2022-10-16T11:57:22;19.20;99.90
36002;DHT22;22070;50.922;5.430;2022-10-16T12:02:50;19.20;99.90
36002;DHT22;22070;50.922;5.430;2022-10-16T12:05:33;19.10;99.90
36002;DHT22;22070;50.922;5.430;2022-10-16T12:08:09;19.10;99.90
36002;DHT22;22070;50.922;5.430;2022-10-16T12:10:37;19.00;99.90
36002;DHT22;22070;50.922;5.430;2022-10-16T12:13:33;19.10;99.90
36002;DHT22;22070;50.922;5.430;2022-10-16T12:18:38;19.30;99.90
36002;DHT22;22070;50.922;5.430;2022-10-16T12:21:04;19.40;99.90
36002;DHT22;22070;50.922;5.430;2022-10-16T12:23:51;19.50;99.90
36002;DHT22;22070;50.922;5.430;2022-10-16T12:26:28;19.40;99.90
36002;DHT22;22070;50.922;5.430;2022-10-16T12:29:12;19.50;99.90
36002;DHT22;22070;50.922;5.430;2022-10-16T12:31:46;19.60;99.90
36002;DHT22;22070;50.922;5.430;2022-10-16T12:34:36;19.80;99.90
36002;DHT22;22070;50.922;5.430;2022-10-16T12:37:22;19.80;99.90
36002;DHT22;22070;50.922;5.430;2022-10-16T12:39:49;19.90;99.90
36002;DHT22;22070;50.922;5.430;2022-10-16T12:44:47;20.20;99.90
36002;DHT22;22070;50.922;5.430;2022-10-16T12:47:35;20.30;99.90
36002;DHT22;22070;50.922;5.430;2022-10-16T12:50:01;20.40;99.90
36002;DHT22;22070;50.922;5.430;2022-10-16T12:54:59;20.60;99.90
36002;DHT22;22070;50.922;5.430;2022-10-16T13:02:53;20.50;99.90
36002;DHT22;22070;50.922;5.430;2022-10-16T13:05:57;20.50;99.90
36002;DHT22;22070;50.922;5.430;2022-10-16T13:14:10;20.60;99.90
36002;DHT22;22070;50.922;5.430;2022-10-16T13:19:43;20.50;99.90
36002;DHT22;22070;50.922;5.430;2022-10-16T13:25:31;20.60;99.90
36002;DHT22;22070;50.922;5.430;2022-10-16T13:28:02;20.50;99.90
36002;DHT22;22070;50.922;5.430;2022-10-16T13:30:30;20.50;99.90
36002;DHT22;22070;50.922;5.430;2022-10-16T13:33:30;20.50;99.90
36002;DHT22;22070;50.922;5.430;2022-10-16T13:35:55;20.50;99.90
36002;DHT22;22070;50.922;5.430;2022-10-16T13:38:27;20.30;99.90
36002;DHT22;22070;50.922;5.430;2022-10-16T13:40:58;20.30;99.90
36002;DHT22;22070;50.922;5.430;2022-10-16T13:43:46;20.40;99.90
36002;DHT22;22070;50.922;5.430;2022-10-16T13:46:14;20.40;99.90
36002;DHT22;22070;50.922;5.430;2022-10-16T13:48:40;20.50;99.90
36002;DHT22;22070;50.922;5.430;2022-10-16T13:51:17;20.40;99.90
36002;DHT22;22070;50.922;5.430;2022-10-16T13:53:43;20.50;99.90
36002;DHT22;22070;50.922;5.430;2022-10-16T13:56:10;20.60;99.90
36002;DHT22;22070;50.922;5.430;2022-10-16T13:58:37;20.60;99.90
36002;DHT22;22070;50.922;5.430;2022-10-16T14:01:15;20.50;99.90
36002;DHT22;22070;50.922;5.430;2022-10-16T14:03:42;20.60;99.90
36002;DHT22;22070;50.922;5.430;2022-10-16T14:06:13;20.50;99.90
36002;DHT22;22070;50.922;5.430;2022-10-16T14:08:43;20.50;99.90
36002;DHT22;22070;50.922;5.430;2022-10-16T14:11:10;20.50;99.90
36002;DHT22;22070;50.922;5.430;2022-10-16T14:13:39;20.60;99.90
36002;DHT22;22070;50.922;5.430;2022-10-16T14:16:10;20.60;99.90
36002;DHT22;22070;50.922;5.430;2022-10-16T14:18:40;20.70;99.90
36002;DHT22;22070;50.922;5.430;2022-10-16T14:21:10;20.70;99.90
36002;DHT22;22070;50.922;5.430;2022-10-16T14:23:38;20.60;99.90
36002;DHT22;22070;50.922;5.430;2022-10-16T14:28:39;20.70;99.90
36002;DHT22;22070;50.922;5.430;2022-10-16T14:31:28;20.70;99.90
36002;DHT22;22070;50.922;5.430;2022-10-16T14:33:54;20.70;99.90
36002;DHT22;22070;50.922;5.430;2022-10-16T14:36:20;20.60;99.90
36002;DHT22;22070;50.922;5.430;2022-10-16T14:39:17;20.70;99.90
36002;DHT22;22070;50.922;5.430;2022-10-16T14:41:47;20.60;99.90
36002;DHT22;22070;50.922;5.430;2022-10-16T14:44:13;20.50;99.90
36002;DHT22;22070;50.922;5.430;2022-10-16T14:46:41;20.50;99.90
36002;DHT22;22070;50.922;5.430;2022-10-16T14:51:38;20.40;99.90
36002;DHT22;22070;50.922;5.430;2022-10-16T14:54:04;20.40;99.90
36002;DHT22;22070;50.922;5.430;2022-10-16T14:56:34;20.40;99.90
36002;DHT22;22070;50.922;5.430;2022-10-16T14:59:02;20.40;99.90
36002;DHT22;22070;50.922;5.430;2022-10-16T15:01:28;20.40;99.90
36002;DHT22;22070;50.922;5.430;2022-10-16T15:03:53;20.40;99.90
36002;DHT22;22070;50.922;5.430;2022-10-16T15:06:21;20.30;99.90
36002;DHT22;22070;50.922;5.430;2022-10-16T15:08:47;20.30;99.90
36002;DHT22;22070;50.922;5.430;2022-10-16T15:11:17;20.30;99.90
36002;DHT22;22070;50.922;5.430;2022-10-16T15:13:44;20.30;99.90
36002;DHT22;22070;50.922;5.430;2022-10-16T15:16:14;20.30;99.90
36002;DHT22;22070;50.922;5.430;2022-10-16T15:18:40;20.30;99.90
36002;DHT22;22070;50.922;5.430;2022-10-16T15:21:06;20.30;99.90
36002;DHT22;22070;50.922;5.430;2022-10-16T15:23:31;20.30;99.90
36002;DHT22;22070;50.922;5.430;2022-10-16T15:25:57;20.20;99.90
36002;DHT22;22070;50.922;5.430;2022-10-16T15:28:24;20.20;99.90
36002;DHT22;22070;50.922;5.430;2022-10-16T15:30:52;20.20;99.90
36002;DHT22;22070;50.922;5.430;2022-10-16T15:33:20;20.20;99.90
36002;DHT22;22070;50.922;5.430;2022-10-16T15:35:49;20.20;99.90
36002;DHT22;22070;50.922;5.430;2022-10-16T15:38:16;20.10;99.90
36002;DHT22;22070;50.922;5.430;2022-10-16T15:40:42;20.10;99.90
36002;DHT22;22070;50.922;5.430;2022-10-16T15:43:08;20.00;99.90
36002;DHT22;22070;50.922;5.430;2022-10-16T15:45:34;19.90;99.90
36002;DHT22;22070;50.922;5.430;2022-10-16T15:48:00;19.90;99.90
36002;DHT22;22070;50.922;5.430;2022-10-16T15:50:26;19.80;99.90
36002;DHT22;22070;50.922;5.430;2022-10-16T15:52:52;19.80;99.90
36002;DHT22;22070;50.922;5.430;2022-10-16T15:55:17;19.70;99.90
36002;DHT22;22070;50.922;5.430;2022-10-16T15:57:45;19.70;99.90
36002;DHT22;22070;50.922;5.430;2022-10-16T16:00:16;19.70;99.90
36002;DHT22;22070;50.922;5.430;2022-10-16T16:02:43;19.60;99.90
36002;DHT22;22070;50.922;5.430;2022-10-16T16:05:10;19.50;99.90
36002;DHT22;22070;50.922;5.430;2022-10-16T16:07:37;19.40;99.90
36002;DHT22;22070;50.922;5.430;2022-10-16T16:10:05;19.40;99.90
36002;DHT22;22070;50.922;5.430;2022-10-16T16:12:32;19.40;99.90
36002;DHT22;22070;50.922;5.430;2022-10-16T16:14:58;19.30;99.90
36002;DHT22;22070;50.922;5.430;2022-10-16T16:17:23;19.30;99.90
36002;DHT22;22070;50.922;5.430;2022-10-16T16:19:50;19.20;99.90
36002;DHT22;22070;50.922;5.430;2022-10-16T16:22:15;19.20;99.90
36002;DHT22;22070;50.922;5.430;2022-10-16T16:24:41;19.10;99.90
36002;DHT22;22070;50.922;5.430;2022-10-16T16:27:07;19.10;99.90
36002;DHT22;22070;50.922;5.430;2022-10-16T16:29:33;19.00;99.90
36002;DHT22;22070;50.922;5.430;2022-10-16T16:31:59;19.00;99.90
36002;DHT22;22070;50.922;5.430;2022-10-16T16:34:27;18.90;99.90
36002;DHT22;22070;50.922;5.430;2022-10-16T16:36:53;18.80;99.90
36002;DHT22;22070;50.922;5.430;2022-10-16T16:39:19;18.80;99.90
36002;DHT22;22070;50.922;5.430;2022-10-16T16:41:44;18.80;99.90
36002;DHT22;22070;50.922;5.430;2022-10-16T16:44:14;18.70;99.90
36002;DHT22;22070;50.922;5.430;2022-10-16T16:46:41;18.70;99.90
36002;DHT22;22070;50.922;5.430;2022-10-16T16:49:09;18.60;99.90
36002;DHT22;22070;50.922;5.430;2022-10-16T16:51:35;18.60;99.90
36002;DHT22;22070;50.922;5.430;2022-10-16T16:54:01;18.50;99.90
36002;DHT22;22070;50.922;5.430;2022-10-16T16:56:27;18.50;99.90
36002;DHT22;22070;50.922;5.430;2022-10-16T16:58:55;18.40;99.90
36002;DHT22;22070;50.922;5.430;2022-10-16T17:01:22;18.40;99.90
36002;DHT22;22070;50.922;5.430;2022-10-16T17:03:52;18.30;99.90
36002;DHT22;22070;50.922;5.430;2022-10-16T17:06:23;18.30;99.90
36002;DHT22;22070;50.922;5.430;2022-10-16T17:08:50;18.30;99.90
36002;DHT22;22070;50.922;5.430;2022-10-16T17:11:18;18.30;99.90
36002;DHT22;22070;50.922;5.430;2022-10-16T17:13:44;18.20;99.90
36002;DHT22;22070;50.922;5.430;2022-10-16T17:16:10;18.20;99.90
36002;DHT22;22070;50.922;5.430;2022-10-16T17:18:36;18.20;99.90
36002;DHT22;22070;50.922;5.430;2022-10-16T17:21:05;18.10;99.90
36002;DHT22;22070;50.922;5.430;2022-10-16T17:23:31;18.10;99.90
36002;DHT22;22070;50.922;5.430;2022-10-16T17:26:09;18.00;99.90
36002;DHT22;22070;50.922;5.430;2022-10-16T17:28:35;18.00;99.90
36002;DHT22;22070;50.922;5.430;2022-10-16T17:33:33;18.00;99.90
36002;DHT22;22070;50.922;5.430;2022-10-16T17:35:58;18.00;99.90
36002;DHT22;22070;50.922;5.430;2022-10-16T17:38:24;17.90;99.90
36002;DHT22;22070;50.922;5.430;2022-10-16T17:40:50;17.90;99.90
36002;DHT22;22070;50.922;5.430;2022-10-16T17:43:16;17.80;99.90